Terminal Aerodrome Forecast
Issued by NWS Los Angeles, CA

Home | Current Version | Previous Version | Text Only | Print | Product List | Glossary On
Versions: 1 2 3 4 5 6 7 8 9 10 11 12 13 14 15 16 17 18 19 20 21 22 23
000
FTUS46 KLOX 071741
TAFSMX
TAF
KSMX 071741Z 0718/0818 VRB03KT P6SM SCT120
     FM072000 30008KT P6SM OVC120
     FM080300 VRB03KT P6SM SCT050 OVC100
     FM081600 15008KT P6SM BKN025 OVC050=

USA.gov is the U.S. government's official web portal to all federal, state and local government web resources and services.